Time;durP1;ratioP1;P1;durP2;ratioP2;P2;SDS_P1;SDS_P2;PMS_P1;PMS_P2;Temp;Humidity;BMP_temperature;BMP_pressure;BME280_temperature;BME280_humidity;BME280_pressure;Samples;Min_cycle;Max_cycle;Signal;HPM_P1;HPM_P2
2022/07/17 00:00:51;;;;;;;3.17;2.78;;;15.80;94.50;;;;;;6153228;23;20208;-75
2022/07/17 00:03:17;;;;;;;3.08;2.70;;;15.80;94.40;;;;;;6154455;23;20164;-73
2022/07/17 00:05:44;;;;;;;3.10;2.83;;;15.70;94.50;;;;;;6154065;23;20181;-73
2022/07/17 00:08:11;;;;;;;3.80;2.25;;;15.60;94.60;;;;;;6154443;23;20197;-72
2022/07/17 00:10:39;;;;;;;3.13;2.45;;;15.60;94.50;;;;;;6154105;23;20718;-73
2022/07/17 00:13:05;;;;;;;2.33;2.22;;;15.60;94.70;;;;;;6155933;23;20172;-73
2022/07/17 00:15:32;;;;;;;2.67;2.53;;;15.60;95.00;;;;;;6156150;23;20153;-73
2022/07/17 00:17:57;;;;;;;3.42;2.90;;;15.60;95.70;;;;;;6156309;23;20150;-73
2022/07/17 00:20:25;;;;;;;3.30;3.00;;;15.60;95.40;;;;;;6155340;23;20176;-73
2022/07/17 00:22:57;;;;;;;3.22;2.75;;;15.60;95.50;;;;;;6156035;23;20156;-72
2022/07/17 00:25:24;;;;;;;3.10;2.78;;;15.50;96.40;;;;;;6129998;23;20146;-73
2022/07/17 00:27:50;;;;;;;3.90;2.67;;;15.40;97.20;;;;;;6156037;23;20661;-73
2022/07/17 00:30:16;;;;;;;3.85;3.00;;;15.30;97.50;;;;;;6155561;23;20154;-73
2022/07/17 00:32:42;;;;;;;4.30;2.47;;;15.30;98.00;;;;;;6155898;23;20173;-73
2022/07/17 00:35:09;;;;;;;3.08;2.75;;;15.30;98.10;;;;;;6156347;23;20219;-73
2022/07/17 00:37:42;;;;;;;2.58;2.47;;;15.20;98.10;;;;;;6155856;23;20521;-73
2022/07/17 00:40:11;;;;;;;4.25;2.38;;;15.20;97.90;;;;;;6129601;23;20161;-73
2022/07/17 00:42:40;;;;;;;3.00;2.40;;;15.20;97.90;;;;;;6156169;23;20174;-73
2022/07/17 00:45:07;;;;;;;2.85;2.65;;;15.10;98.90;;;;;;6156043;23;20679;-73
2022/07/17 00:47:32;;;;;;;3.80;3.13;;;15.10;99.00;;;;;;6129340;23;20626;-73
2022/07/17 00:49:58;;;;;;;4.05;2.80;;;15.10;99.60;;;;;;6155650;23;20184;-73
2022/07/17 00:52:24;;;;;;;2.90;2.58;;;15.00;99.80;;;;;;6155827;23;20267;-73
2022/07/17 00:54:51;;;;;;;4.55;2.72;;;15.00;99.50;;;;;;6128931;23;20160;-71
2022/07/17 00:57:18;;;;;;;2.65;2.45;;;14.90;99.20;;;;;;6155729;23;20223;-73
2022/07/17 00:59:45;;;;;;;4.25;2.42;;;14.90;99.10;;;;;;6155899;23;20157;-73
2022/07/17 01:02:13;;;;;;;3.88;2.90;;;14.90;99.10;;;;;;6156047;23;20228;-74
2022/07/17 01:04:39;;;;;;;3.88;2.50;;;14.80;99.10;;;;;;6155492;23;20577;-71
2022/07/17 01:07:07;;;;;;;4.45;3.03;;;14.80;99.20;;;;;;6155759;23;20192;-71
2022/07/17 01:09:33;;;;;;;3.13;2.60;;;14.80;99.80;;;;;;6155189;23;20153;-71
2022/07/17 01:11:59;;;;;;;2.40;2.20;;;14.80;99.80;;;;;;6154798;23;20490;-71
2022/07/17 01:14:26;;;;;;;2.65;2.45;;;14.80;99.90;;;;;;6156239;23;20152;-71
2022/07/17 01:16:53;;;;;;;2.40;2.20;;;14.80;99.80;;;;;;6155916;23;20599;-72
2022/07/17 01:19:20;;;;;;;6.70;3.40;;;14.80;99.90;;;;;;6155791;23;20153;-71
2022/07/17 01:21:48;;;;;;;2.88;2.60;;;14.80;99.70;;;;;;6155582;23;20174;-72
2022/07/17 01:24:14;;;;;;;2.80;2.60;;;14.80;99.90;;;;;;6155527;23;20176;-71
2022/07/17 01:26:44;;;;;;;3.03;2.78;;;14.70;99.90;;;;;;6155706;23;20150;-71
2022/07/17 01:29:11;;;;;;;3.50;2.78;;;14.70;99.90;;;;;;6154641;23;20179;-71
2022/07/17 01:31:39;;;;;;;3.13;2.60;;;14.60;99.90;;;;;;6154989;23;20181;-71
2022/07/17 01:34:06;;;;;;;3.75;3.17;;;14.60;99.90;;;;;;6129501;23;20497;-72
2022/07/17 01:36:32;;;;;;;3.58;2.70;;;14.60;99.90;;;;;;6155632;23;20150;-71
2022/07/17 01:38:58;;;;;;;2.70;2.50;;;14.50;99.90;;;;;;6154786;23;20185;-71
2022/07/17 01:41:24;;;;;;;3.30;2.72;;;14.50;99.90;;;;;;6129234;23;20501;-71
2022/07/17 01:43:49;;;;;;;3.08;2.50;;;14.50;99.90;;;;;;6155524;23;20157;-70
2022/07/17 01:46:16;;;;;;;3.67;2.90;;;14.40;99.90;;;;;;6155014;23;20252;-70
2022/07/17 01:48:41;;;;;;;3.15;2.80;;;14.40;99.90;;;;;;6154786;23;20490;-71
2022/07/17 01:51:07;;;;;;;4.68;2.90;;;14.30;99.90;;;;;;6154939;23;20181;-70
2022/07/17 01:53:33;;;;;;;2.80;2.60;;;14.30;99.90;;;;;;6155519;23;20150;-71
2022/07/17 01:55:58;;;;;;;3.00;2.80;;;14.30;99.90;;;;;;6155475;23;20149;-71
2022/07/17 01:58:24;;;;;;;3.85;2.97;;;14.20;99.90;;;;;;6154847;23;20168;-70
2022/07/17 02:00:50;;;;;;;3.15;2.92;;;14.20;99.90;;;;;;6155135;23;20244;-70
2022/07/17 02:03:16;;;;;;;3.22;2.97;;;14.20;99.90;;;;;;6155073;23;20153;-71
2022/07/17 02:05:43;;;;;;;2.92;2.60;;;14.20;99.90;;;;;;6154966;23;20212;-70
2022/07/17 02:08:09;;;;;;;3.28;2.58;;;14.10;99.90;;;;;;6155075;23;20161;-70
2022/07/17 02:10:34;;;;;;;5.20;3.13;;;14.10;99.90;;;;;;6154655;23;20611;-71
2022/07/17 02:13:00;;;;;;;2.97;2.72;;;14.10;99.90;;;;;;6155568;23;20220;-70
2022/07/17 02:15:26;;;;;;;3.10;2.90;;;14.00;99.90;;;;;;6155108;23;20642;-70
2022/07/17 02:17:52;;;;;;;3.55;2.60;;;14.00;99.90;;;;;;6155271;23;20468;-71
2022/07/17 02:20:17;;;;;;;2.90;2.63;;;14.00;99.90;;;;;;6128458;23;20158;-71
2022/07/17 02:22:44;;;;;;;4.13;2.90;;;13.90;99.90;;;;;;6154855;23;20149;-71
2022/07/17 02:25:11;;;;;;;2.75;2.53;;;13.90;99.90;;;;;;6155302;23;20146;-71
2022/07/17 02:27:37;;;;;;;4.35;3.65;;;13.80;99.90;;;;;;6155353;23;20145;-71
2022/07/17 02:30:04;;;;;;;2.72;2.53;;;13.90;99.90;;;;;;6154636;23;20156;-70
2022/07/17 02:32:30;;;;;;;2.88;2.67;;;13.80;99.90;;;;;;6128690;23;20177;-71
2022/07/17 02:34:55;;;;;;;3.47;2.67;;;13.80;99.90;;;;;;6154265;23;20157;-70
2022/07/17 02:37:21;;;;;;;4.78;3.35;;;13.80;99.90;;;;;;6155277;23;20180;-71
2022/07/17 02:39:53;;;;;;;2.92;2.72;;;13.80;99.90;;;;;;6154583;23;20150;-71
2022/07/17 02:42:24;;;;;;;2.75;2.55;;;13.90;99.90;;;;;;6154500;23;20172;-71
2022/07/17 02:44:50;;;;;;;3.35;2.95;;;13.90;99.90;;;;;;6128524;23;20523;-70
2022/07/17 02:47:26;;;;;;;3.28;2.95;;;13.90;99.90;;;;;;6155297;23;20158;-71
2022/07/17 02:49:52;;;;;;;5.57;3.08;;;13.90;99.90;;;;;;6154898;23;20160;-71
2022/07/17 02:52:19;;;;;;;4.18;2.90;;;13.80;99.90;;;;;;6155310;23;20192;-70
2022/07/17 02:54:45;;;;;;;3.42;3.10;;;13.70;99.90;;;;;;6154288;23;20149;-71
2022/07/17 02:57:11;;;;;;;3.15;2.88;;;13.60;99.90;;;;;;6153369;23;20498;-70
2022/07/17 02:59:36;;;;;;;3.55;2.95;;;13.60;99.90;;;;;;6154371;23;20137;-70
2022/07/17 03:02:02;;;;;;;3.40;3.10;;;13.50;99.90;;;;;;6155341;23;20212;-70
2022/07/17 03:04:28;;;;;;;3.20;3.00;;;13.50;99.90;;;;;;6151728;23;20153;-71
2022/07/17 03:06:54;;;;;;;3.10;2.90;;;13.50;99.90;;;;;;6129126;23;20158;-71
2022/07/17 03:09:19;;;;;;;3.67;3.08;;;13.40;99.90;;;;;;6154803;23;20176;-72
2022/07/17 03:11:45;;;;;;;6.43;3.40;;;13.40;99.90;;;;;;6155021;23;20181;-73
2022/07/17 03:14:10;;;;;;;3.58;3.28;;;13.30;99.90;;;;;;6154676;23;20150;-72
2022/07/17 03:16:36;;;;;;;3.50;3.25;;;13.30;99.90;;;;;;6154746;23;20153;-72
2022/07/17 03:19:02;;;;;;;3.58;3.28;;;13.30;99.90;;;;;;6154779;23;20276;-72
2022/07/17 03:21:28;;;;;;;3.50;3.25;;;13.30;99.90;;;;;;6154803;23;20184;-72
2022/07/17 03:23:54;;;;;;;2.97;2.80;;;13.30;99.90;;;;;;6155043;23;20157;-72
2022/07/17 03:26:19;;;;;;;3.58;3.22;;;13.30;99.90;;;;;;6155462;23;20153;-72
2022/07/17 03:28:45;;;;;;;3.00;2.80;;;13.20;99.90;;;;;;6154932;23;20177;-72
2022/07/17 03:31:10;;;;;;;3.30;3.00;;;13.20;99.90;;;;;;6155087;23;20204;-73
2022/07/17 03:33:36;;;;;;;3.38;2.83;;;13.20;99.90;;;;;;6154567;23;20153;-74
2022/07/17 03:36:02;;;;;;;2.60;2.40;;;13.20;99.90;;;;;;6155001;23;20156;-72
2022/07/17 03:38:27;;;;;;;4.28;3.13;;;13.20;99.90;;;;;;6129870;23;20149;-71
2022/07/17 03:40:53;;;;;;;3.05;2.72;;;13.20;99.90;;;;;;6155025;23;20184;-71
2022/07/17 03:43:18;;;;;;;2.97;2.78;;;13.20;99.90;;;;;;6155805;23;20154;-71
2022/07/17 03:45:44;;;;;;;3.15;2.92;;;13.10;99.90;;;;;;6155486;23;20149;-72
2022/07/17 03:48:10;;;;;;;3.45;3.15;;;13.10;99.90;;;;;;6157620;23;20157;-71
2022/07/17 03:50:36;;;;;;;2.75;2.55;;;13.10;99.90;;;;;;6156930;23;20181;-70
2022/07/17 03:53:01;;;;;;;3.35;3.15;;;13.20;99.90;;;;;;6131306;23;20483;-71
2022/07/17 03:55:27;;;;;;;3.28;2.97;;;13.20;99.90;;;;;;6157793;23;20149;-70
2022/07/17 03:57:53;;;;;;;3.55;3.28;;;13.20;99.90;;;;;;6157744;23;20247;-71
2022/07/17 04:00:18;;;;;;;3.10;2.78;;;13.20;99.90;;;;;;6158050;23;20493;-72
2022/07/17 04:02:44;;;;;;;2.75;2.65;;;13.30;99.90;;;;;;6157595;23;20153;-71
2022/07/17 04:05:10;;;;;;;2.67;2.53;;;13.30;99.90;;;;;;6157760;23;20257;-71
2022/07/17 04:07:37;;;;;;;2.80;2.70;;;13.30;99.90;;;;;;6157920;23;20152;-71
2022/07/17 04:10:04;;;;;;;2.80;2.60;;;13.40;99.90;;;;;;6157743;23;20152;-72
2022/07/17 04:12:30;;;;;;;2.95;2.75;;;13.40;99.90;;;;;;6130615;23;20196;-72
2022/07/17 04:14:56;;;;;;;3.42;2.72;;;13.40;99.90;;;;;;6157791;23;20224;-71
2022/07/17 04:17:22;;;;;;;2.70;2.50;;;13.40;99.90;;;;;;6157663;23;20224;-71
2022/07/17 04:19:48;;;;;;;2.42;2.25;;;13.50;99.90;;;;;;6130519;23;20482;-71
2022/07/17 04:22:14;;;;;;;3.17;2.40;;;13.60;99.90;;;;;;6157001;23;20176;-70
2022/07/17 04:24:40;;;;;;;3.13;2.47;;;13.60;99.90;;;;;;6130214;23;20157;-71
2022/07/17 04:27:07;;;;;;;2.28;2.17;;;13.70;99.90;;;;;;6156544;23;20153;-71
2022/07/17 04:29:33;;;;;;;2.10;2.00;;;13.80;99.90;;;;;;6156040;23;20150;-71
2022/07/17 04:31:59;;;;;;;2.33;2.22;;;13.80;99.90;;;;;;6156358;23;20195;-72
2022/07/17 04:34:24;;;;;;;2.65;2.55;;;13.90;99.90;;;;;;6130229;23;20173;-71
2022/07/17 04:36:50;;;;;;;2.78;2.58;;;14.00;99.90;;;;;;6155965;23;20169;-71
2022/07/17 04:39:16;;;;;;;3.53;2.45;;;14.00;99.90;;;;;;6155847;23;20149;-71
2022/07/17 04:41:41;;;;;;;3.40;2.28;;;14.00;99.90;;;;;;6155719;23;20178;-71
2022/07/17 04:44:07;;;;;;;3.63;2.45;;;14.10;99.90;;;;;;6156278;23;20150;-71
2022/07/17 04:46:33;;;;;;;2.40;2.20;;;14.10;99.90;;;;;;6155573;23;20595;-73
2022/07/17 04:48:58;;;;;;;2.40;2.20;;;14.20;99.90;;;;;;6155615;23;20157;-72
2022/07/17 04:51:24;;;;;;;2.47;2.28;;;14.30;99.90;;;;;;6155890;23;20181;-72
2022/07/17 04:53:50;;;;;;;3.17;2.30;;;14.30;99.90;;;;;;6156543;23;20164;-72
2022/07/17 04:56:15;;;;;;;3.35;2.25;;;14.40;99.90;;;;;;6129318;23;20487;-73
2022/07/17 04:58:41;;;;;;;2.55;2.30;;;14.40;99.90;;;;;;6155424;23;20222;-73
2022/07/17 05:01:06;;;;;;;4.13;2.45;;;14.50;99.90;;;;;;6155509;23;20183;-74
2022/07/17 05:03:32;;;;;;;3.65;2.60;;;14.50;99.90;;;;;;6155720;23;20169;-73
2022/07/17 05:05:58;;;;;;;2.33;2.20;;;14.60;99.90;;;;;;6156076;23;20142;-73
2022/07/17 05:08:24;;;;;;;2.15;1.95;;;14.70;99.90;;;;;;6156420;23;20153;-74
2022/07/17 05:10:49;;;;;;;4.38;2.33;;;14.70;99.90;;;;;;6156012;23;20192;-73
2022/07/17 05:13:15;;;;;;;2.67;2.25;;;14.80;99.90;;;;;;6129179;23;20152;-72
2022/07/17 05:15:41;;;;;;;3.05;2.30;;;14.80;99.90;;;;;;6156330;23;20200;-73
2022/07/17 05:18:07;;;;;;;2.20;2.10;;;14.90;99.90;;;;;;6155993;23;20468;-74
2022/07/17 05:20:33;;;;;;;2.05;1.90;;;14.90;99.90;;;;;;6155028;23;20236;-73
2022/07/17 05:22:58;;;;;;;3.97;2.00;;;15.00;99.90;;;;;;6155567;23;20192;-73
2022/07/17 05:25:25;;;;;;;2.88;2.20;;;15.00;99.90;;;;;;6154900;23;20158;-74
2022/07/17 05:27:51;;;;;;;2.20;2.08;;;15.00;99.90;;;;;;6156135;23;20176;-76
2022/07/17 05:30:16;;;;;;;2.88;2.08;;;15.10;99.90;;;;;;6154371;23;20591;-74
2022/07/17 05:32:42;;;;;;;2.72;2.25;;;15.20;99.90;;;;;;6153701;23;20176;-74
2022/07/17 05:35:08;;;;;;;4.28;2.25;;;15.30;99.90;;;;;;6154781;23;20603;-76
2022/07/17 05:37:33;;;;;;;2.78;2.15;;;15.40;99.90;;;;;;6154585;23;20180;-74
2022/07/17 05:39:59;;;;;;;2.08;1.98;;;15.50;99.90;;;;;;6153036;23;20149;-75
2022/07/17 05:42:25;;;;;;;2.00;1.90;;;15.60;99.90;;;;;;6154539;23;20173;-74
2022/07/17 05:44:50;;;;;;;2.33;1.77;;;15.70;99.90;;;;;;6153109;23;20161;-76
2022/07/17 05:47:16;;;;;;;2.45;1.70;;;15.90;99.90;;;;;;6153514;23;20149;-76
2022/07/17 05:49:42;;;;;;;3.17;1.83;;;16.00;99.90;;;;;;6154476;23;20233;-75
2022/07/17 05:52:07;;;;;;;2.75;1.98;;;16.00;99.90;;;;;;6154339;23;20208;-75
2022/07/17 05:54:33;;;;;;;2.75;2.38;;;16.10;99.60;;;;;;6154754;23;20480;-75
2022/07/17 05:57:00;;;;;;;2.38;1.80;;;16.20;99.10;;;;;;6153899;23;20149;-75
2022/07/17 05:59:25;;;;;;;2.13;2.00;;;16.30;98.90;;;;;;6154583;23;20153;-73
2022/07/17 06:01:51;;;;;;;3.40;2.65;;;16.40;99.00;;;;;;6154835;23;20202;-75
2022/07/17 06:04:16;;;;;;;2.92;2.25;;;16.50;98.30;;;;;;6154054;23;20575;-75
2022/07/17 06:06:42;;;;;;;9.30;2.20;;;16.60;98.20;;;;;;6154704;23;20164;-75
2022/07/17 06:09:08;;;;;;;2.63;2.10;;;16.70;98.40;;;;;;6153988;23;20503;-75
2022/07/17 06:11:33;;;;;;;1.90;1.80;;;16.80;97.50;;;;;;6154443;23;20451;-76
2022/07/17 06:13:59;;;;;;;3.45;2.05;;;16.90;97.70;;;;;;6154389;23;20204;-76
2022/07/17 06:16:25;;;;;;;3.58;1.75;;;17.00;97.50;;;;;;6155048;23;20220;-77
2022/07/17 06:18:50;;;;;;;2.35;2.20;;;17.20;97.20;;;;;;6154974;23;20212;-76
2022/07/17 06:21:16;;;;;;;2.30;2.10;;;17.30;97.00;;;;;;6154136;23;20180;-74
2022/07/17 06:23:41;;;;;;;1.80;1.70;;;17.40;96.80;;;;;;6154485;23;20606;-75
2022/07/17 06:26:07;;;;;;;2.25;2.05;;;17.40;95.90;;;;;;6128705;23;20200;-75
2022/07/17 06:28:33;;;;;;;1.90;1.80;;;17.50;95.40;;;;;;6154045;23;20163;-75
2022/07/17 06:30:58;;;;;;;2.50;2.30;;;17.60;95.80;;;;;;6153669;23;20189;-76
2022/07/17 06:33:24;;;;;;;4.68;2.10;;;17.60;95.70;;;;;;6154986;23;20145;-76
2022/07/17 06:35:50;;;;;;;2.47;1.80;;;17.80;94.90;;;;;;6154508;23;20145;-74
2022/07/17 06:38:15;;;;;;;1.88;1.75;;;17.90;94.50;;;;;;6154258;23;20220;-75
2022/07/17 06:40:41;;;;;;;2.90;1.88;;;18.00;94.00;;;;;;6153769;23;20696;-75
2022/07/17 06:43:06;;;;;;;1.90;1.80;;;18.00;94.00;;;;;;6153596;23;20204;-76
2022/07/17 06:45:32;;;;;;;1.90;1.67;;;18.10;93.90;;;;;;6154462;23;20152;-76
2022/07/17 06:47:58;;;;;;;4.03;1.80;;;18.20;93.00;;;;;;6154443;23;20228;-79
2022/07/17 06:50:24;;;;;;;3.83;2.00;;;18.30;93.60;;;;;;6128175;23;20288;-76
2022/07/17 06:52:50;;;;;;;1.52;1.52;;;18.40;92.20;;;;;;6154711;23;20145;-75
2022/07/17 06:55:15;;;;;;;1.85;1.70;;;18.50;92.30;;;;;;6155288;23;20155;-77
2022/07/17 06:57:41;;;;;;;1.85;1.75;;;18.70;92.70;;;;;;6128989;23;20244;-75
2022/07/17 07:00:08;;;;;;;2.90;1.65;;;18.80;91.00;;;;;;6153860;23;20506;-75
2022/07/17 07:02:34;;;;;;;5.40;1.50;;;18.90;91.10;;;;;;6153753;23;20177;-79
2022/07/17 07:05:00;;;;;;;2.35;1.80;;;19.00;90.90;;;;;;6152265;23;20157;-76
2022/07/17 07:07:26;;;;;;;2.45;1.83;;;19.20;90.90;;;;;;6154178;23;20160;-78
2022/07/17 07:09:51;;;;;;;3.40;1.80;;;19.30;88.70;;;;;;6155137;23;20172;-77
2022/07/17 07:12:17;;;;;;;2.55;1.90;;;19.30;88.40;;;;;;6153692;23;20260;-76
2022/07/17 07:14:42;;;;;;;2.38;2.17;;;19.40;88.00;;;;;;6153109;23;20622;-75
2022/07/17 07:17:08;;;;;;;1.73;1.63;;;19.60;88.20;;;;;;6151059;23;20244;-75
2022/07/17 07:19:34;;;;;;;1.70;1.60;;;19.70;86.50;;;;;;6151429;23;20154;-75
2022/07/17 07:21:59;;;;;;;2.00;1.73;;;19.90;86.60;;;;;;6155162;23;20650;-75
2022/07/17 07:24:25;;;;;;;3.92;2.00;;;20.00;85.60;;;;;;6155104;23;20610;-75
2022/07/17 07:26:51;;;;;;;2.35;2.15;;;20.10;85.10;;;;;;6154346;23;20292;-75
2022/07/17 07:29:17;;;;;;;1.80;1.70;;;20.30;84.70;;;;;;6155597;23;20149;-75
2022/07/17 07:31:42;;;;;;;1.88;1.70;;;20.40;82.70;;;;;;6156046;23;20721;-76
2022/07/17 07:34:08;;;;;;;4.10;1.98;;;20.60;84.00;;;;;;6157089;23;20228;-76
2022/07/17 07:36:33;;;;;;;1.50;1.40;;;20.80;82.50;;;;;;6156541;23;20192;-76
2022/07/17 07:38:59;;;;;;;1.60;1.50;;;20.90;81.90;;;;;;6156151;23;20145;-76
2022/07/17 07:41:25;;;;;;;1.52;1.42;;;21.10;79.60;;;;;;6155727;23;20196;-76
2022/07/17 07:43:50;;;;;;;3.13;1.65;;;21.30;78.60;;;;;;6155097;23;20153;-75
2022/07/17 07:46:16;;;;;;;3.15;1.88;;;21.40;76.50;;;;;;6155783;23;20545;-76
2022/07/17 07:48:42;;;;;;;2.20;1.98;;;21.50;76.00;;;;;;6155546;23;20160;-76
2022/07/17 07:51:07;;;;;;;3.40;1.58;;;21.60;77.80;;;;;;6155646;23;20181;-76
2022/07/17 07:53:33;;;;;;;1.70;1.60;;;21.60;75.50;;;;;;6155530;23;20150;-76
2022/07/17 07:55:59;;;;;;;1.83;1.67;;;21.70;77.40;;;;;;6155771;23;20607;-76
2022/07/17 07:58:25;;;;;;;4.28;1.60;;;21.80;77.10;;;;;;6155609;23;20277;-76
2022/07/17 08:00:50;;;;;;;1.30;1.30;;;21.90;76.40;;;;;;6128509;23;20184;-76
2022/07/17 08:03:17;;;;;;;1.30;1.30;;;22.00;75.30;;;;;;6155479;23;20149;-76
2022/07/17 08:05:42;;;;;;;1.77;1.60;;;22.10;74.60;;;;;;6155635;23;20173;-75
2022/07/17 08:08:08;;;;;;;1.88;1.70;;;22.20;75.10;;;;;;6155539;23;20160;-75
2022/07/17 08:10:34;;;;;;;2.40;1.50;;;22.20;75.00;;;;;;6154879;23;20141;-75
2022/07/17 08:13:00;;;;;;;1.65;1.55;;;22.30;74.30;;;;;;6129559;23;20232;-76
2022/07/17 08:15:25;;;;;;;1.58;1.48;;;22.30;73.40;;;;;;6155098;23;20619;-76
2022/07/17 08:17:52;;;;;;;1.20;1.20;;;22.40;73.00;;;;;;6155397;23;20150;-75
2022/07/17 08:20:19;;;;;;;2.45;1.67;;;22.60;73.20;;;;;;6154760;23;20149;-76
2022/07/17 08:22:46;;;;;;;1.50;1.50;;;22.80;72.90;;;;;;6155560;23;20146;-75
2022/07/17 08:25:12;;;;;;;2.08;1.85;;;22.90;71.70;;;;;;6153869;23;20157;-76
2022/07/17 08:27:39;;;;;;;2.35;1.63;;;23.10;71.60;;;;;;6155172;23;20679;-75
2022/07/17 08:30:07;;;;;;;4.13;1.77;;;23.30;70.90;;;;;;6129441;23;20164;-75
2022/07/17 08:32:33;;;;;;;1.67;1.20;;;23.50;67.80;;;;;;6154486;23;20189;-75
2022/07/17 08:34:59;;;;;;;1.23;1.23;;;23.60;68.60;;;;;;6129114;23;20157;-76
2022/07/17 08:37:25;;;;;;;2.05;1.83;;;23.70;67.70;;;;;;6129053;23;20159;-75
2022/07/17 08:39:51;;;;;;;1.60;1.60;;;23.70;68.90;;;;;;6130486;23;20160;-76
2022/07/17 08:42:17;;;;;;;1.38;1.27;;;23.80;68.00;;;;;;6154370;23;20619;-76
2022/07/17 08:44:43;;;;;;;1.58;1.48;;;23.80;67.40;;;;;;6155890;23;20228;-76
2022/07/17 08:47:14;;;;;;;1.40;1.30;;;23.90;67.90;;;;;;6155744;23;20185;-76
2022/07/17 08:49:45;;;;;;;2.00;1.85;;;23.90;65.90;;;;;;6154649;23;20141;-76
2022/07/17 08:52:12;;;;;;;1.40;1.30;;;23.90;66.10;;;;;;6154977;23;20256;-77
2022/07/17 08:54:37;;;;;;;2.15;1.45;;;23.80;64.70;;;;;;6154776;23;20165;-77
2022/07/17 08:57:03;;;;;;;1.40;1.30;;;23.70;66.30;;;;;;6154994;23;20487;-76
2022/07/17 08:59:30;;;;;;;1.85;1.50;;;23.60;64.60;;;;;;6154472;23;20152;-76
2022/07/17 09:01:56;;;;;;;1.48;1.48;;;23.60;64.30;;;;;;6128001;23;20173;-76
2022/07/17 09:04:21;;;;;;;1.80;1.35;;;23.70;62.70;;;;;;6154726;23;20152;-75
2022/07/17 09:07:01;;;;;;;1.65;1.60;;;23.80;64.00;;;;;;6155157;23;20254;-74
2022/07/17 09:09:28;;;;;;;1.67;1.58;;;23.80;63.10;;;;;;6153743;23;20216;-76
2022/07/17 09:11:55;;;;;;;4.63;1.65;;;24.10;64.60;;;;;;6128420;23;20193;-75
2022/07/17 09:14:21;;;;;;;1.40;1.30;;;24.30;64.90;;;;;;6155061;23;20609;-76
2022/07/17 09:17:00;;;;;;;1.73;1.45;;;24.50;61.00;;;;;;6155776;23;20146;-75
2022/07/17 09:19:31;;;;;;;2.35;1.60;;;24.80;60.90;;;;;;6155943;23;20157;-76
2022/07/17 09:22:10;;;;;;;1.50;1.40;;;25.10;61.10;;;;;;6155458;23;20193;-73
2022/07/17 09:24:48;;;;;;;1.23;1.23;;;25.50;59.30;;;;;;6154919;23;20148;-71
2022/07/17 09:27:28;;;;;;;2.50;1.58;;;25.90;58.40;;;;;;6153383;23;20153;-71
2022/07/17 09:29:58;;;;;;;1.83;1.70;;;26.00;59.10;;;;;;6154190;23;20137;-71
2022/07/17 09:32:27;;;;;;;1.83;1.30;;;26.10;59.00;;;;;;6154426;23;20185;-71
2022/07/17 09:34:55;;;;;;;1.15;1.15;;;26.40;58.00;;;;;;6128520;23;20157;-69
2022/07/17 09:37:23;;;;;;;3.67;1.60;;;26.60;55.10;;;;;;6155139;23;20145;-71
2022/07/17 09:39:51;;;;;;;2.45;1.60;;;27.30;54.10;;;;;;6152570;23;20160;-71
2022/07/17 09:42:44;;;;;;;1.52;1.42;;;28.70;54.00;;;;;;6153779;23;20514;-69
2022/07/17 09:45:10;;;;;;;1.30;1.20;;;31.30;49.10;;;;;;6149865;23;20558;-71
2022/07/17 09:47:39;;;;;;;2.15;1.40;;;32.80;44.20;;;;;;6153862;23;20200;-70
2022/07/17 09:50:07;;;;;;;1.23;1.23;;;33.80;43.20;;;;;;6153560;23;20494;-69
2022/07/17 09:52:36;;;;;;;1.30;1.30;;;34.80;40.80;;;;;;6152460;23;20181;-70
2022/07/17 09:55:03;;;;;;;1.50;1.25;;;35.40;40.30;;;;;;6153723;23;20152;-69
2022/07/17 09:57:31;;;;;;;1.10;1.10;;;36.20;38.70;;;;;;6153904;23;20179;-69
2022/07/17 10:00:02;;;;;;;5.00;1.10;;;36.80;37.50;;;;;;6153980;23;20142;-70
2022/07/17 10:02:28;;;;;;;1.80;0.98;;;37.20;36.50;;;;;;6153237;23;20173;-66
2022/07/17 10:04:54;;;;;;;0.93;0.93;;;37.90;34.80;;;;;;6153702;23;20159;-67
2022/07/17 10:07:20;;;;;;;1.33;1.20;;;39.10;33.00;;;;;;6154211;23;20223;-70
2022/07/17 10:09:47;;;;;;;1.75;0.82;;;39.90;32.90;;;;;;6154021;23;20168;-70
2022/07/17 10:12:16;;;;;;;1.27;1.13;;;39.90;32.70;;;;;;6153344;23;20185;-68
2022/07/17 10:14:42;;;;;;;1.30;1.20;;;40.00;32.90;;;;;;6154153;23;20169;-68
2022/07/17 10:17:10;;;;;;;2.03;1.23;;;40.40;31.00;;;;;;6151982;23;20149;-67
2022/07/17 10:19:48;;;;;;;0.95;0.95;;;39.90;30.70;;;;;;6152428;23;20155;-67
2022/07/17 10:22:14;;;;;;;1.10;1.05;;;39.80;30.30;;;;;;6154222;23;20505;-68
2022/07/17 10:24:52;;;;;;;3.42;0.90;;;39.60;31.40;;;;;;6154007;23;20227;-67
2022/07/17 10:27:26;;;;;;;1.15;1.10;;;40.00;31.30;;;;;;6154124;23;20140;-67
2022/07/17 10:30:09;;;;;;;1.00;1.00;;;40.40;30.70;;;;;;6153442;23;20191;-67
2022/07/17 10:32:36;;;;;;;2.05;1.30;;;41.00;30.50;;;;;;6153842;23;20700;-67
2022/07/17 10:35:09;;;;;;;1.00;1.00;;;40.90;29.50;;;;;;6153139;23;20505;-66
2022/07/17 10:37:35;;;;;;;1.50;0.90;;;41.30;29.10;;;;;;6152918;23;20148;-66
2022/07/17 10:40:22;;;;;;;0.95;0.95;;;41.60;28.60;;;;;;6153048;23;20605;-66
2022/07/17 10:42:51;;;;;;;1.92;1.10;;;41.80;29.20;;;;;;6153252;23;20145;-66
2022/07/17 10:45:19;;;;;;;1.10;1.10;;;42.00;29.10;;;;;;6153342;23;20203;-66
2022/07/17 10:47:48;;;;;;;1.83;1.15;;;42.30;29.60;;;;;;6153631;23;20141;-68
2022/07/17 10:50:14;;;;;;;1.15;1.00;;;42.80;28.80;;;;;;6153810;23;20152;-69
2022/07/17 10:52:40;;;;;;;1.55;1.48;;;43.20;28.30;;;;;;6153089;23;20188;-67
2022/07/17 10:55:17;;;;;;;1.63;1.50;;;43.20;29.00;;;;;;6153206;23;20212;-68
2022/07/17 10:57:42;;;;;;;1.48;1.10;;;43.50;28.70;;;;;;6153873;23;20239;-67
2022/07/17 11:00:10;;;;;;;1.33;1.20;;;43.40;27.70;;;;;;6153519;23;20175;-68
2022/07/17 11:02:36;;;;;;;1.35;1.00;;;43.40;27.10;;;;;;6153335;23;20180;-67
2022/07/17 11:05:09;;;;;;;1.27;1.13;;;43.60;27.10;;;;;;6152214;23;20493;-67
2022/07/17 11:07:34;;;;;;;1.98;0.98;;;42.90;27.00;;;;;;6152429;23;20517;-68
2022/07/17 11:10:00;;;;;;;1.13;1.13;;;41.70;27.00;;;;;;6153387;23;20157;-68
2022/07/17 11:12:35;;;;;;;2.30;1.00;;;40.10;27.90;;;;;;6152794;23;20255;-68
2022/07/17 11:15:04;;;;;;;1.40;1.13;;;39.80;28.70;;;;;;6152863;23;20168;-69
2022/07/17 11:17:30;;;;;;;1.08;0.90;;;41.30;28.10;;;;;;6152822;23;20141;-71
2022/07/17 11:19:58;;;;;;;1.20;1.10;;;41.40;28.30;;;;;;6150778;23;20210;-67
2022/07/17 11:22:24;;;;;;;0.90;0.90;;;42.50;27.10;;;;;;6153380;23;20255;-66
2022/07/17 11:24:50;;;;;;;1.40;1.30;;;42.90;26.70;;;;;;6152590;23;20157;-69
2022/07/17 11:27:20;;;;;;;0.90;0.90;;;43.30;26.70;;;;;;6152804;23;20159;-70
2022/07/17 11:29:47;;;;;;;1.10;1.10;;;43.40;26.20;;;;;;6152680;23;20173;-67
2022/07/17 11:32:12;;;;;;;3.28;1.13;;;43.30;26.90;;;;;;6152744;23;20188;-66
2022/07/17 11:34:38;;;;;;;0.88;0.88;;;42.90;26.90;;;;;;6153810;23;20237;-69
2022/07/17 11:37:06;;;;;;;1.02;1.02;;;42.70;26.60;;;;;;6153066;23;20145;-69
2022/07/17 11:39:41;;;;;;;1.02;0.98;;;42.40;27.00;;;;;;6127184;23;20479;-70
2022/07/17 11:42:24;;;;;;;2.00;1.05;;;42.40;27.30;;;;;;6153700;23;20171;-70
2022/07/17 11:44:54;;;;;;;1.23;0.80;;;41.10;27.50;;;;;;6153796;23;20141;-70
2022/07/17 11:47:26;;;;;;;1.27;1.20;;;41.20;26.60;;;;;;6151420;23;20153;-70
2022/07/17 11:50:03;;;;;;;1.55;1.02;;;40.30;27.30;;;;;;6152951;23;20168;-69
2022/07/17 11:52:48;;;;;;;0.73;0.73;;;40.50;28.20;;;;;;6151535;23;20263;-76
2022/07/17 11:55:14;;;;;;;1.95;0.80;;;41.50;25.70;;;;;;6150951;23;20130;-70
2022/07/17 11:57:46;;;;;;;0.90;0.90;;;41.30;26.50;;;;;;6152578;23;20678;-73
2022/07/17 12:00:13;;;;;;;1.27;0.98;;;41.00;26.40;;;;;;6152868;23;20149;-76
2022/07/17 12:02:38;;;;;;;1.58;1.10;;;41.10;26.70;;;;;;6153398;23;20176;-73
2022/07/17 12:05:05;;;;;;;1.55;0.93;;;41.10;27.10;;;;;;6153256;23;20156;-74
2022/07/17 12:07:45;;;;;;;0.90;0.90;;;40.90;26.80;;;;;;6153665;23;20133;-73
2022/07/17 12:10:13;;;;;;;1.10;1.00;;;40.50;27.20;;;;;;6155380;23;20159;-72
2022/07/17 12:12:39;;;;;;;0.98;0.98;;;41.00;26.30;;;;;;6155947;23;20187;-73
2022/07/17 12:15:06;;;;;;;1.00;1.00;;;41.30;25.90;;;;;;6156306;23;20164;-72
2022/07/17 12:17:40;;;;;;;1.27;0.90;;;41.00;26.30;;;;;;6155496;23;20149;-73
2022/07/17 12:20:08;;;;;;;1.60;1.10;;;40.10;27.10;;;;;;6129175;23;20160;-71
2022/07/17 12:22:48;;;;;;;0.60;0.60;;;39.80;27.10;;;;;;6154135;23;20175;-73
2022/07/17 12:25:27;;;;;;;0.88;0.88;;;39.20;26.80;;;;;;6153588;23;20630;-71
2022/07/17 12:27:53;;;;;;;0.80;0.80;;;39.50;26.70;;;;;;6153526;23;20172;-74
2022/07/17 12:30:22;;;;;;;1.73;0.70;;;39.20;27.30;;;;;;6154927;23;20215;-73
2022/07/17 12:32:47;;;;;;;1.20;1.10;;;39.00;27.50;;;;;;6154633;23;20570;-73
2022/07/17 12:35:14;;;;;;;1.10;0.90;;;39.10;27.80;;;;;;6154657;23;20223;-74
2022/07/17 12:37:40;;;;;;;0.70;0.70;;;39.80;28.10;;;;;;6154325;23;20149;-75
2022/07/17 12:40:09;;;;;;;1.50;0.82;;;40.80;26.70;;;;;;6153746;23;20153;-70
2022/07/17 12:42:34;;;;;;;1.13;1.02;;;41.00;26.40;;;;;;6154159;23;20175;-75
2022/07/17 12:45:01;;;;;;;0.82;0.82;;;41.30;26.90;;;;;;6128482;23;20156;-76
2022/07/17 12:47:27;;;;;;;0.75;0.75;;;41.90;25.90;;;;;;6127664;23;20156;-72